sensor_id;sensor_type;location;lat;lon;timestamp;pressure;altitude;pressure_sealevel;temperature;humidity
73558;BME280;61829;53.286;10.434;2023-08-06T00:01:21;100526.75;;;16.43;97.70
73558;BME280;61829;53.286;10.434;2023-08-06T00:03:49;100511.72;;;16.40;97.79
73558;BME280;61829;53.286;10.434;2023-08-06T00:06:16;100521.84;;;16.33;98.60
73558;BME280;61829;53.286;10.434;2023-08-06T00:08:42;100518.41;;;16.26;98.62
73558;BME280;61829;53.286;10.434;2023-08-06T00:11:08;100513.66;;;16.21;98.42
73558;BME280;61829;53.286;10.434;2023-08-06T00:13:34;100504.06;;;16.19;98.69
73558;BME280;61829;53.286;10.434;2023-08-06T00:16:11;100516.94;;;16.11;98.87
73558;BME280;61829;53.286;10.434;2023-08-06T00:18:38;100518.31;;;16.02;98.87
73558;BME280;61829;53.286;10.434;2023-08-06T00:21:04;100527.06;;;15.86;99.42
73558;BME280;61829;53.286;10.434;2023-08-06T00:23:31;100526.09;;;15.80;99.55
73558;BME280;61829;53.286;10.434;2023-08-06T00:25:57;100526.53;;;15.77;99.92
73558;BME280;61829;53.286;10.434;2023-08-06T00:28:23;100519.44;;;15.76;99.52
73558;BME280;61829;53.286;10.434;2023-08-06T00:30:55;100515.72;;;15.70;99.36
73558;BME280;61829;53.286;10.434;2023-08-06T00:33:22;100520.13;;;15.71;99.74
73558;BME280;61829;53.286;10.434;2023-08-06T00:35:48;100515.19;;;15.62;100.00
73558;BME280;61829;53.286;10.434;2023-08-06T00:38:15;100505.00;;;15.57;100.00
73558;BME280;61829;53.286;10.434;2023-08-06T00:40:41;100510.44;;;15.57;100.00
73558;BME280;61829;53.286;10.434;2023-08-06T00:43:08;100503.13;;;15.58;100.00
73558;BME280;61829;53.286;10.434;2023-08-06T00:45:35;100502.66;;;15.61;100.00
73558;BME280;61829;53.286;10.434;2023-08-06T00:48:02;100497.22;;;15.61;100.00
73558;BME280;61829;53.286;10.434;2023-08-06T00:50:29;100501.84;;;15.60;100.00
73558;BME280;61829;53.286;10.434;2023-08-06T00:52:56;100494.72;;;15.59;100.00
73558;BME280;61829;53.286;10.434;2023-08-06T00:55:22;100495.34;;;15.61;100.00
73558;BME280;61829;53.286;10.434;2023-08-06T00:57:50;100496.56;;;15.65;100.00
73558;BME280;61829;53.286;10.434;2023-08-06T01:00:17;100497.13;;;15.67;100.00
73558;BME280;61829;53.286;10.434;2023-08-06T01:02:44;100493.41;;;15.68;100.00
73558;BME280;61829;53.286;10.434;2023-08-06T01:05:10;100488.34;;;15.72;100.00
73558;BME280;61829;53.286;10.434;2023-08-06T01:11:08;100481.50;;;15.69;100.00
73558;BME280;61829;53.286;10.434;2023-08-06T01:13:42;100475.59;;;15.73;100.00
73558;BME280;61829;53.286;10.434;2023-08-06T01:19:41;100466.16;;;15.75;100.00
73558;BME280;61829;53.286;10.434;2023-08-06T01:22:06;100461.56;;;15.76;100.00
73558;BME280;61829;53.286;10.434;2023-08-06T01:24:33;100455.06;;;15.77;100.00
73558;BME280;61829;53.286;10.434;2023-08-06T01:27:33;100451.91;;;15.80;100.00
73558;BME280;61829;53.286;10.434;2023-08-06T01:30:25;100446.69;;;15.78;99.87
73558;BME280;61829;53.286;10.434;2023-08-06T01:32:59;100438.16;;;15.75;99.80
73558;BME280;61829;53.286;10.434;2023-08-06T01:35:27;100442.31;;;15.77;99.64
73558;BME280;61829;53.286;10.434;2023-08-06T01:37:54;100438.75;;;15.77;99.30
73558;BME280;61829;53.286;10.434;2023-08-06T01:40:22;100437.09;;;15.76;99.23
73558;BME280;61829;53.286;10.434;2023-08-06T01:42:48;100429.19;;;15.74;99.64
73558;BME280;61829;53.286;10.434;2023-08-06T01:45:14;100427.31;;;15.75;99.86
73558;BME280;61829;53.286;10.434;2023-08-06T01:47:40;100423.53;;;15.76;99.33
73558;BME280;61829;53.286;10.434;2023-08-06T01:50:06;100414.53;;;15.75;99.05
73558;BME280;61829;53.286;10.434;2023-08-06T01:52:32;100409.13;;;15.75;98.89
73558;BME280;61829;53.286;10.434;2023-08-06T01:54:58;100408.03;;;15.76;99.47
73558;BME280;61829;53.286;10.434;2023-08-06T01:57:24;100405.09;;;15.78;99.49
73558;BME280;61829;53.286;10.434;2023-08-06T01:59:50;100406.75;;;15.79;99.61
73558;BME280;61829;53.286;10.434;2023-08-06T02:02:16;100396.97;;;15.78;99.67
73558;BME280;61829;53.286;10.434;2023-08-06T02:04:43;100392.19;;;15.73;100.00
73558;BME280;61829;53.286;10.434;2023-08-06T02:07:09;100392.81;;;15.75;100.00
73558;BME280;61829;53.286;10.434;2023-08-06T02:09:36;100397.78;;;15.78;100.00
73558;BME280;61829;53.286;10.434;2023-08-06T02:12:02;100392.19;;;15.73;100.00
73558;BME280;61829;53.286;10.434;2023-08-06T02:14:29;100390.56;;;15.72;100.00
73558;BME280;61829;53.286;10.434;2023-08-06T02:16:55;100383.47;;;15.71;100.00
73558;BME280;61829;53.286;10.434;2023-08-06T02:19:21;100384.75;;;15.68;100.00
73558;BME280;61829;53.286;10.434;2023-08-06T02:21:47;100376.63;;;15.68;100.00
73558;BME280;61829;53.286;10.434;2023-08-06T02:24:13;100380.19;;;15.62;100.00
73558;BME280;61829;53.286;10.434;2023-08-06T02:26:39;100376.75;;;15.55;100.00
73558;BME280;61829;53.286;10.434;2023-08-06T02:29:05;100377.56;;;15.56;100.00
73558;BME280;61829;53.286;10.434;2023-08-06T02:31:31;100382.78;;;15.57;100.00
73558;BME280;61829;53.286;10.434;2023-08-06T02:33:57;100378.53;;;15.61;100.00
73558;BME280;61829;53.286;10.434;2023-08-06T02:36:25;100381.88;;;15.63;100.00
73558;BME280;61829;53.286;10.434;2023-08-06T02:38:55;100376.44;;;15.63;100.00
73558;BME280;61829;53.286;10.434;2023-08-06T02:41:21;100375.59;;;15.63;100.00
73558;BME280;61829;53.286;10.434;2023-08-06T02:43:47;100373.94;;;15.62;100.00
73558;BME280;61829;53.286;10.434;2023-08-06T02:46:13;100367.47;;;15.63;100.00
73558;BME280;61829;53.286;10.434;2023-08-06T02:48:39;100372.75;;;15.58;100.00
73558;BME280;61829;53.286;10.434;2023-08-06T02:51:05;100371.94;;;15.57;100.00
73558;BME280;61829;53.286;10.434;2023-08-06T02:53:31;100374.84;;;15.56;100.00
73558;BME280;61829;53.286;10.434;2023-08-06T02:55:57;100371.53;;;15.54;100.00
73558;BME280;61829;53.286;10.434;2023-08-06T02:58:24;100377.22;;;15.52;100.00
73558;BME280;61829;53.286;10.434;2023-08-06T03:01:03;100378.03;;;15.53;100.00
73558;BME280;61829;53.286;10.434;2023-08-06T03:03:30;100365.72;;;15.50;100.00
73558;BME280;61829;53.286;10.434;2023-08-06T03:05:56;100365.53;;;15.52;100.00
73558;BME280;61829;53.286;10.434;2023-08-06T03:08:24;100362.66;;;15.46;100.00
73558;BME280;61829;53.286;10.434;2023-08-06T03:10:51;100357.44;;;15.45;100.00
73558;BME280;61829;53.286;10.434;2023-08-06T03:13:18;100347.03;;;15.42;100.00
73558;BME280;61829;53.286;10.434;2023-08-06T03:15:51;100354.00;;;15.38;100.00
73558;BME280;61829;53.286;10.434;2023-08-06T03:18:18;100348.09;;;15.41;100.00
73558;BME280;61829;53.286;10.434;2023-08-06T03:20:45;100349.59;;;15.37;100.00
73558;BME280;61829;53.286;10.434;2023-08-06T03:23:11;100337.56;;;15.33;100.00
73558;BME280;61829;53.286;10.434;2023-08-06T03:25:37;100335.91;;;15.32;100.00
73558;BME280;61829;53.286;10.434;2023-08-06T03:28:03;100335.44;;;15.35;100.00
73558;BME280;61829;53.286;10.434;2023-08-06T03:30:29;100330.22;;;15.33;100.00
73558;BME280;61829;53.286;10.434;2023-08-06T03:32:56;100328.22;;;15.29;100.00
73558;BME280;61829;53.286;10.434;2023-08-06T03:35:22;100328.91;;;15.24;100.00
73558;BME280;61829;53.286;10.434;2023-08-06T03:37:48;100328.53;;;15.20;100.00
73558;BME280;61829;53.286;10.434;2023-08-06T03:40:15;100317.88;;;15.19;100.00
73558;BME280;61829;53.286;10.434;2023-08-06T03:42:41;100322.50;;;15.18;100.00
73558;BME280;61829;53.286;10.434;2023-08-06T03:45:09;100325.66;;;15.15;100.00
73558;BME280;61829;53.286;10.434;2023-08-06T03:47:35;100329.41;;;15.14;100.00
73558;BME280;61829;53.286;10.434;2023-08-06T03:50:02;100329.66;;;15.13;100.00
73558;BME280;61829;53.286;10.434;2023-08-06T03:52:28;100316.09;;;15.13;100.00
73558;BME280;61829;53.286;10.434;2023-08-06T03:54:54;100318.56;;;15.14;100.00
73558;BME280;61829;53.286;10.434;2023-08-06T03:57:20;100318.56;;;15.14;100.00
73558;BME280;61829;53.286;10.434;2023-08-06T03:59:47;100316.44;;;15.16;100.00
73558;BME280;61829;53.286;10.434;2023-08-06T04:02:13;100320.25;;;15.15;99.71
73558;BME280;61829;53.286;10.434;2023-08-06T04:04:39;100315.63;;;15.16;99.48
73558;BME280;61829;53.286;10.434;2023-08-06T04:07:05;100313.13;;;15.14;99.83
73558;BME280;61829;53.286;10.434;2023-08-06T04:09:33;100310.06;;;15.11;99.52
73558;BME280;61829;53.286;10.434;2023-08-06T04:11:59;100312.41;;;15.07;99.72
73558;BME280;61829;53.286;10.434;2023-08-06T04:14:27;100311.78;;;15.05;99.82
73558;BME280;61829;53.286;10.434;2023-08-06T04:16:53;100315.19;;;15.00;99.87
73558;BME280;61829;53.286;10.434;2023-08-06T04:19:20;100306.66;;;14.97;100.00
73558;BME280;61829;53.286;10.434;2023-08-06T04:21:46;100311.88;;;14.98;99.93
73558;BME280;61829;53.286;10.434;2023-08-06T04:24:13;100315.63;;;14.97;99.98
73558;BME280;61829;53.286;10.434;2023-08-06T04:26:39;100320.22;;;14.97;99.90
73558;BME280;61829;53.286;10.434;2023-08-06T04:29:06;100318.34;;;14.97;100.00
73558;BME280;61829;53.286;10.434;2023-08-06T04:31:31;100327.34;;;14.98;99.64
73558;BME280;61829;53.286;10.434;2023-08-06T04:33:58;100315.88;;;14.96;99.19
73558;BME280;61829;53.286;10.434;2023-08-06T04:36:24;100318.78;;;14.94;99.17
73558;BME280;61829;53.286;10.434;2023-08-06T04:38:50;100307.56;;;14.91;98.78
73558;BME280;61829;53.286;10.434;2023-08-06T04:41:16;100313.59;;;14.93;98.68
73558;BME280;61829;53.286;10.434;2023-08-06T04:43:42;100313.81;;;14.91;98.46
73558;BME280;61829;53.286;10.434;2023-08-06T04:46:09;100318.41;;;14.91;98.26
73558;BME280;61829;53.286;10.434;2023-08-06T04:48:35;100308.84;;;14.88;98.59
73558;BME280;61829;53.286;10.434;2023-08-06T04:51:02;100309.69;;;14.89;98.76
73558;BME280;61829;53.286;10.434;2023-08-06T04:53:28;100301.53;;;14.89;99.00
73558;BME280;61829;53.286;10.434;2023-08-06T04:56:00;100302.16;;;14.91;98.86
73558;BME280;61829;53.286;10.434;2023-08-06T04:58:26;100303.78;;;14.92;98.89
73558;BME280;61829;53.286;10.434;2023-08-06T05:00:53;100300.66;;;14.95;98.60
73558;BME280;61829;53.286;10.434;2023-08-06T05:03:20;100307.72;;;14.96;98.54
73558;BME280;61829;53.286;10.434;2023-08-06T05:05:46;100306.66;;;14.97;98.50
73558;BME280;61829;53.286;10.434;2023-08-06T05:08:15;100309.63;;;14.95;98.28
73558;BME280;61829;53.286;10.434;2023-08-06T05:10:44;100308.56;;;14.96;98.93
73558;BME280;61829;53.286;10.434;2023-08-06T05:13:10;100306.44;;;14.98;98.92
73558;BME280;61829;53.286;10.434;2023-08-06T05:15:36;100306.22;;;15.00;99.37
73558;BME280;61829;53.286;10.434;2023-08-06T05:18:02;100310.97;;;15.04;99.47
73558;BME280;61829;53.286;10.434;2023-08-06T05:20:29;100306.72;;;15.09;99.57
73558;BME280;61829;53.286;10.434;2023-08-06T05:22:55;100305.22;;;15.13;99.02
73558;BME280;61829;53.286;10.434;2023-08-06T05:25:21;100307.50;;;15.16;98.92
73558;BME280;61829;53.286;10.434;2023-08-06T05:27:47;100304.31;;;15.19;98.58
73558;BME280;61829;53.286;10.434;2023-08-06T05:30:13;100306.81;;;15.20;98.44
73558;BME280;61829;53.286;10.434;2023-08-06T05:32:40;100309.28;;;15.22;98.11
73558;BME280;61829;53.286;10.434;2023-08-06T05:35:06;100306.34;;;15.23;97.91
73558;BME280;61829;53.286;10.434;2023-08-06T05:37:32;100301.50;;;15.25;97.33
73558;BME280;61829;53.286;10.434;2023-08-06T05:39:58;100301.91;;;15.29;96.95
73558;BME280;61829;53.286;10.434;2023-08-06T05:42:25;100307.44;;;15.34;96.89
73558;BME280;61829;53.286;10.434;2023-08-06T05:44:51;100304.50;;;15.36;97.37
73558;BME280;61829;53.286;10.434;2023-08-06T05:47:17;100299.44;;;15.39;97.85
73558;BME280;61829;53.286;10.434;2023-08-06T05:49:45;100298.16;;;15.42;97.56
73558;BME280;61829;53.286;10.434;2023-08-06T05:52:11;100294.16;;;15.44;97.22
73558;BME280;61829;53.286;10.434;2023-08-06T05:54:37;100298.53;;;15.45;97.26
73558;BME280;61829;53.286;10.434;2023-08-06T05:57:04;100298.09;;;15.48;97.33
73558;BME280;61829;53.286;10.434;2023-08-06T05:59:30;100293.84;;;15.53;97.45
73558;BME280;61829;53.286;10.434;2023-08-06T06:01:56;100299.41;;;15.58;97.63
73558;BME280;61829;53.286;10.434;2023-08-06T06:04:22;100306.63;;;15.64;97.90
73558;BME280;61829;53.286;10.434;2023-08-06T06:06:49;100307.00;;;15.67;98.11
73558;BME280;61829;53.286;10.434;2023-08-06T06:09:15;100298.84;;;15.67;96.40
73558;BME280;61829;53.286;10.434;2023-08-06T06:11:42;100303.28;;;15.68;95.83
73558;BME280;61829;53.286;10.434;2023-08-06T06:14:08;100298.97;;;15.91;94.79
73558;BME280;61829;53.286;10.434;2023-08-06T06:16:34;100311.63;;;16.09;93.18
73558;BME280;61829;53.286;10.434;2023-08-06T06:19:00;100297.03;;;15.80;95.90
73558;BME280;61829;53.286;10.434;2023-08-06T06:21:26;100301.25;;;15.76;96.08
73558;BME280;61829;53.286;10.434;2023-08-06T06:23:52;100293.94;;;15.76;96.40
73558;BME280;61829;53.286;10.434;2023-08-06T06:26:18;100291.47;;;15.75;97.40
73558;BME280;61829;53.286;10.434;2023-08-06T06:28:45;100293.59;;;15.73;96.93
73558;BME280;61829;53.286;10.434;2023-08-06T06:31:11;100295.50;;;15.84;95.58
73558;BME280;61829;53.286;10.434;2023-08-06T06:33:37;100292.09;;;15.88;95.24
73558;BME280;61829;53.286;10.434;2023-08-06T06:36:03;100282.13;;;15.82;96.00
73558;BME280;61829;53.286;10.434;2023-08-06T06:38:29;100279.06;;;15.79;95.33
73558;BME280;61829;53.286;10.434;2023-08-06T06:40:56;100289.94;;;15.79;94.90
73558;BME280;61829;53.286;10.434;2023-08-06T06:43:22;100283.16;;;16.11;93.22
73558;BME280;61829;53.286;10.434;2023-08-06T06:45:56;100287.00;;;15.92;95.26
73558;BME280;61829;53.286;10.434;2023-08-06T06:48:22;100284.53;;;15.90;96.06
73558;BME280;61829;53.286;10.434;2023-08-06T06:50:49;100287.00;;;15.92;96.58
73558;BME280;61829;53.286;10.434;2023-08-06T06:53:15;100284.44;;;15.97;96.27
73558;BME280;61829;53.286;10.434;2023-08-06T06:55:41;100283.97;;;16.00;96.22
73558;BME280;61829;53.286;10.434;2023-08-06T06:58:07;100286.44;;;16.02;95.46
73558;BME280;61829;53.286;10.434;2023-08-06T07:00:35;100280.16;;;16.01;94.25
73558;BME280;61829;53.286;10.434;2023-08-06T07:03:03;100281.00;;;16.02;94.51
73558;BME280;61829;53.286;10.434;2023-08-06T07:05:29;100278.06;;;16.03;95.12
73558;BME280;61829;53.286;10.434;2023-08-06T07:07:56;100269.78;;;16.69;92.85
73558;BME280;61829;53.286;10.434;2023-08-06T07:10:23;100266.72;;;16.30;94.66
73558;BME280;61829;53.286;10.434;2023-08-06T07:12:49;100276.16;;;16.15;96.10
73558;BME280;61829;53.286;10.434;2023-08-06T07:15:15;100283.97;;;16.12;97.08
73558;BME280;61829;53.286;10.434;2023-08-06T07:17:43;100266.56;;;16.72;94.22
73558;BME280;61829;53.286;10.434;2023-08-06T07:20:10;100269.09;;;16.38;95.92
73558;BME280;61829;53.286;10.434;2023-08-06T07:22:36;100284.31;;;16.15;97.77
73558;BME280;61829;53.286;10.434;2023-08-06T07:25:02;100284.91;;;16.06;98.40
73558;BME280;61829;53.286;10.434;2023-08-06T07:27:28;100286.06;;;15.98;98.91
73558;BME280;61829;53.286;10.434;2023-08-06T07:29:57;100290.09;;;15.96;99.10
73558;BME280;61829;53.286;10.434;2023-08-06T07:32:24;100294.22;;;15.98;99.50
73558;BME280;61829;53.286;10.434;2023-08-06T07:34:50;100290.09;;;15.96;98.92
73558;BME280;61829;53.286;10.434;2023-08-06T07:37:22;100297.06;;;15.91;98.98
73558;BME280;61829;53.286;10.434;2023-08-06T07:39:48;100286.41;;;15.90;98.94
73558;BME280;61829;53.286;10.434;2023-08-06T07:42:14;100291.38;;;15.93;99.54
73558;BME280;61829;53.286;10.434;2023-08-06T07:44:40;100286.31;;;15.97;97.85
73558;BME280;61829;53.286;10.434;2023-08-06T07:47:06;100283.97;;;16.00;97.29
73558;BME280;61829;53.286;10.434;2023-08-06T07:49:32;100296.84;;;16.05;98.17
73558;BME280;61829;53.286;10.434;2023-08-06T07:51:58;100291.78;;;16.08;97.97
73558;BME280;61829;53.286;10.434;2023-08-06T07:54:25;100289.16;;;16.13;97.84
73558;BME280;61829;53.286;10.434;2023-08-06T07:56:50;100295.31;;;16.21;98.55
73558;BME280;61829;53.286;10.434;2023-08-06T07:59:16;100298.78;;;16.28;98.61
73558;BME280;61829;53.286;10.434;2023-08-06T08:01:42;100297.69;;;16.29;97.80
73558;BME280;61829;53.286;10.434;2023-08-06T08:04:09;100291.09;;;16.36;98.29
73558;BME280;61829;53.286;10.434;2023-08-06T08:06:34;100289.53;;;16.41;98.50
73558;BME280;61829;53.286;10.434;2023-08-06T08:09:01;100284.81;;;16.48;98.64
73558;BME280;61829;53.286;10.434;2023-08-06T08:11:26;100280.06;;;16.55;98.34
73558;BME280;61829;53.286;10.434;2023-08-06T08:13:53;100284.06;;;16.64;97.64
73558;BME280;61829;53.286;10.434;2023-08-06T08:16:19;100285.75;;;16.77;95.83
73558;BME280;61829;53.286;10.434;2023-08-06T08:18:45;100282.91;;;16.72;95.65
73558;BME280;61829;53.286;10.434;2023-08-06T08:21:11;100285.38;;;16.73;95.81
73558;BME280;61829;53.286;10.434;2023-08-06T08:23:37;100284.53;;;16.96;93.68
73558;BME280;61829;53.286;10.434;2023-08-06T08:26:04;100281.00;;;16.84;94.64
73558;BME280;61829;53.286;10.434;2023-08-06T08:28:31;100286.38;;;17.48;91.07
73558;BME280;61829;53.286;10.434;2023-08-06T08:30:56;100287.22;;;17.65;89.49
73558;BME280;61829;53.286;10.434;2023-08-06T08:33:23;100283.28;;;17.73;88.29
73558;BME280;61829;53.286;10.434;2023-08-06T08:35:48;100281.44;;;17.62;87.41
73558;BME280;61829;53.286;10.434;2023-08-06T08:38:15;100278.56;;;17.68;87.86
73558;BME280;61829;53.286;10.434;2023-08-06T08:40:45;100274.53;;;17.71;86.23
73558;BME280;61829;53.286;10.434;2023-08-06T08:43:14;100274.84;;;17.74;86.21
73558;BME280;61829;53.286;10.434;2023-08-06T08:45:42;100273.91;;;17.52;88.35
73558;BME280;61829;53.286;10.434;2023-08-06T08:48:12;100275.63;;;17.13;90.90
73558;BME280;61829;53.286;10.434;2023-08-06T08:50:40;100276.56;;;17.06;92.36
73558;BME280;61829;53.286;10.434;2023-08-06T08:53:07;100275.41;;;17.02;92.00
73558;BME280;61829;53.286;10.434;2023-08-06T08:55:34;100278.34;;;17.01;92.06
73558;BME280;61829;53.286;10.434;2023-08-06T08:58:01;100272.06;;;17.41;91.16
73558;BME280;61829;53.286;10.434;2023-08-06T09:00:27;100270.13;;;17.82;89.00
73558;BME280;61829;53.286;10.434;2023-08-06T09:02:54;100268.47;;;17.98;88.46
73558;BME280;61829;53.286;10.434;2023-08-06T09:05:21;100273.16;;;18.02;86.32
73558;BME280;61829;53.286;10.434;2023-08-06T09:07:51;100268.41;;;18.09;86.00
73558;BME280;61829;53.286;10.434;2023-08-06T09:10:19;100266.53;;;17.36;90.50
73558;BME280;61829;53.286;10.434;2023-08-06T09:12:51;100272.41;;;17.16;92.71
73558;BME280;61829;53.286;10.434;2023-08-06T09:15:17;100266.88;;;17.11;92.74
73558;BME280;61829;53.286;10.434;2023-08-06T09:17:43;100266.72;;;17.17;93.17
73558;BME280;61829;53.286;10.434;2023-08-06T09:20:13;100269.88;;;17.26;91.79
73558;BME280;61829;53.286;10.434;2023-08-06T09:22:40;100276.03;;;17.33;92.11
73558;BME280;61829;53.286;10.434;2023-08-06T09:25:07;100273.53;;;17.32;91.83
73558;BME280;61829;53.286;10.434;2023-08-06T09:27:40;100273.28;;;17.33;90.82
73558;BME280;61829;53.286;10.434;2023-08-06T09:30:07;100268.34;;;17.30;89.40
73558;BME280;61829;53.286;10.434;2023-08-06T09:32:51;100272.59;;;17.26;90.67
73558;BME280;61829;53.286;10.434;2023-08-06T09:35:17;100266.66;;;17.29;91.13
73558;BME280;61829;53.286;10.434;2023-08-06T09:37:44;100274.34;;;17.32;89.79
73558;BME280;61829;53.286;10.434;2023-08-06T09:40:30;100270.47;;;17.28;89.90
73558;BME280;61829;53.286;10.434;2023-08-06T09:42:57;100286.97;;;17.21;90.74
73558;BME280;61829;53.286;10.434;2023-08-06T09:45:30;100275.97;;;17.16;91.95
73558;BME280;61829;53.286;10.434;2023-08-06T09:47:57;100270.84;;;17.20;92.09
73558;BME280;61829;53.286;10.434;2023-08-06T09:50:30;100269.88;;;17.26;91.86
73558;BME280;61829;53.286;10.434;2023-08-06T09:53:00;100264.09;;;17.22;91.42
73558;BME280;61829;53.286;10.434;2023-08-06T09:55:27;100270.84;;;17.20;91.98
73558;BME280;61829;53.286;10.434;2023-08-06T09:57:54;100277.38;;;17.19;91.31
73558;BME280;61829;53.286;10.434;2023-08-06T10:00:21;100274.66;;;17.19;91.20
73558;BME280;61829;53.286;10.434;2023-08-06T10:02:48;100271.13;;;17.18;91.70
73558;BME280;61829;53.286;10.434;2023-08-06T10:05:17;100264.25;;;17.16;91.40
73558;BME280;61829;53.286;10.434;2023-08-06T10:07:43;100265.78;;;17.12;93.56
73558;BME280;61829;53.286;10.434;2023-08-06T10:10:10;100270.75;;;17.15;94.12
73558;BME280;61829;53.286;10.434;2023-08-06T10:12:43;100267.78;;;17.16;93.71
73558;BME280;61829;53.286;10.434;2023-08-06T10:15:14;100271.66;;;17.20;93.99
73558;BME280;61829;53.286;10.434;2023-08-06T10:17:42;100272.59;;;17.26;92.98
73558;BME280;61829;53.286;10.434;2023-08-06T10:20:09;100271.56;;;17.27;92.19
73558;BME280;61829;53.286;10.434;2023-08-06T10:22:36;100267.53;;;17.30;92.11
73558;BME280;61829;53.286;10.434;2023-08-06T10:25:02;100265.63;;;17.30;93.26
73558;BME280;61829;53.286;10.434;2023-08-06T10:32:52;100256.84;;;17.28;91.42
73558;BME280;61829;53.286;10.434;2023-08-06T10:41:02;100255.59;;;17.47;91.78
73558;BME280;61829;53.286;10.434;2023-08-06T10:43:33;100256.75;;;17.51;87.95
73558;BME280;61829;53.286;10.434;2023-08-06T10:46:02;100249.34;;;17.64;88.37
73558;BME280;61829;53.286;10.434;2023-08-06T10:51:00;100245.41;;;17.88;88.19
73558;BME280;61829;53.286;10.434;2023-08-06T10:53:26;100242.03;;;17.98;88.57
73558;BME280;61829;53.286;10.434;2023-08-06T10:55:52;100238.63;;;18.08;87.16
73558;BME280;61829;53.286;10.434;2023-08-06T10:58:18;100228.91;;;18.12;86.57
73558;BME280;61829;53.286;10.434;2023-08-06T11:00:44;100228.94;;;18.17;86.36
73558;BME280;61829;53.286;10.434;2023-08-06T11:03:11;100220.53;;;18.18;87.50
73558;BME280;61829;53.286;10.434;2023-08-06T11:05:38;100220.63;;;18.24;86.89
73558;BME280;61829;53.286;10.434;2023-08-06T11:08:04;100222.50;;;18.40;87.38
73558;BME280;61829;53.286;10.434;2023-08-06T11:10:33;100226.81;;;18.58;86.16
73558;BME280;61829;53.286;10.434;2023-08-06T11:13:03;100224.72;;;18.65;85.24
73558;BME280;61829;53.286;10.434;2023-08-06T11:15:30;100221.16;;;18.65;83.53
73558;BME280;61829;53.286;10.434;2023-08-06T11:17:58;100223.88;;;18.65;83.67
73558;BME280;61829;53.286;10.434;2023-08-06T11:20:24;100218.75;;;18.68;84.32
73558;BME280;61829;53.286;10.434;2023-08-06T11:22:50;100220.41;;;18.69;83.75
73558;BME280;61829;53.286;10.434;2023-08-06T11:25:20;100214.44;;;18.72;83.72
73558;BME280;61829;53.286;10.434;2023-08-06T11:27:46;100209.63;;;18.79;84.22
73558;BME280;61829;53.286;10.434;2023-08-06T11:30:12;100216.56;;;18.87;84.85
73558;BME280;61829;53.286;10.434;2023-08-06T11:32:45;100221.19;;;18.87;83.45
73558;BME280;61829;53.286;10.434;2023-08-06T11:35:17;100213.81;;;18.87;83.03
73558;BME280;61829;53.286;10.434;2023-08-06T11:37:45;100215.16;;;18.84;83.36
73558;BME280;61829;53.286;10.434;2023-08-06T11:40:12;100221.41;;;18.80;83.74
73558;BME280;61829;53.286;10.434;2023-08-06T11:42:40;100211.53;;;18.79;82.12
73558;BME280;61829;53.286;10.434;2023-08-06T11:45:06;100206.16;;;18.84;82.71
73558;BME280;61829;53.286;10.434;2023-08-06T11:47:38;100212.69;;;18.83;81.44
73558;BME280;61829;53.286;10.434;2023-08-06T11:50:04;100206.88;;;18.74;82.15
73558;BME280;61829;53.286;10.434;2023-08-06T11:52:31;100198.47;;;18.81;83.69
73558;BME280;61829;53.286;10.434;2023-08-06T11:55:01;100203.28;;;18.96;83.41
73558;BME280;61829;53.286;10.434;2023-08-06T11:57:36;100201.28;;;19.13;83.17
73558;BME280;61829;53.286;10.434;2023-08-06T12:00:10;100207.50;;;19.31;83.53
73558;BME280;61829;53.286;10.434;2023-08-06T12:06:18;100193.16;;;19.45;80.82
73558;BME280;61829;53.286;10.434;2023-08-06T12:08:44;100197.28;;;19.48;80.79
73558;BME280;61829;53.286;10.434;2023-08-06T12:11:10;100193.19;;;19.50;80.56
73558;BME280;61829;53.286;10.434;2023-08-06T12:13:36;100187.41;;;19.47;79.93
73558;BME280;61829;53.286;10.434;2023-08-06T12:16:02;100184.06;;;19.40;81.85
73558;BME280;61829;53.286;10.434;2023-08-06T12:18:28;100181.06;;;19.41;82.17
73558;BME280;61829;53.286;10.434;2023-08-06T12:20:54;100170.38;;;19.35;80.98
73558;BME280;61829;53.286;10.434;2023-08-06T12:23:20;100170.41;;;19.40;81.04
73558;BME280;61829;53.286;10.434;2023-08-06T12:25:46;100173.22;;;19.50;80.93
73558;BME280;61829;53.286;10.434;2023-08-06T12:28:12;100172.31;;;19.66;81.46
73558;BME280;61829;53.286;10.434;2023-08-06T12:30:39;100168.22;;;19.69;80.10
73558;BME280;61829;53.286;10.434;2023-08-06T12:33:08;100167.97;;;19.70;80.73
73558;BME280;61829;53.286;10.434;2023-08-06T12:35:35;100170.13;;;19.68;79.77
73558;BME280;61829;53.286;10.434;2023-08-06T12:38:01;100169.81;;;19.65;79.51
73558;BME280;61829;53.286;10.434;2023-08-06T12:40:27;100169.25;;;19.63;79.55
73558;BME280;61829;53.286;10.434;2023-08-06T12:42:53;100172.56;;;19.65;79.31
73558;BME280;61829;53.286;10.434;2023-08-06T12:45:19;100166.88;;;19.71;79.53
73558;BME280;61829;53.286;10.434;2023-08-06T12:47:46;100168.53;;;19.72;78.58
73558;BME280;61829;53.286;10.434;2023-08-06T12:50:13;100168.28;;;19.74;79.40
73558;BME280;61829;53.286;10.434;2023-08-06T12:52:39;100167.44;;;19.73;80.01
73558;BME280;61829;53.286;10.434;2023-08-06T12:55:05;100163.56;;;19.69;80.21
73558;BME280;61829;53.286;10.434;2023-08-06T12:57:31;100164.97;;;19.72;80.26
73558;BME280;61829;53.286;10.434;2023-08-06T12:59:57;100153.78;;;19.79;81.41
73558;BME280;61829;53.286;10.434;2023-08-06T13:02:23;100148.06;;;19.80;79.39